KOXD/OXD METAR and TAF weather

Enter ICAO airport designator
Station Type Date Time Source
KOXD METAR 2021/04/14 20:15 UTC NOAA

KOXD 142015Z AUTO 27007G16KT 10SM CLR 17/03 A2998 RMK AO2 T01660027


Station Type Date Time Source
KOXD Decoded METAR 2021/04/14 20:15 UTC NOAA

Station name not available
Apr 14, 2021 - 04:15 PM EDT / 2021.04.14 2015 UTC
Wind: from the W (270 degrees) at 8 MPH (7 KT) gusting to 18 MPH (16 KT):0
Visibility: 10 mile(s):0
Sky conditions: clear
Temperature: 61.9 F (16.6 C)
Dew Point: 36.9 F (2.7 C)
Relative Humidity: 39%
Pressure (altimeter): 29.98 in. Hg (1015 hPa)
ob: KOXD 142015Z AUTO 27007G16KT 10SM CLR 17/03 A2998 RMK AO2 T01660027
cycle: 20

Station Type Date Time Source
KOXD TAF UTC NOAA

Error!

Example: see airport list